createdAt,value
2022-09-11T00:04:14.488Z,15.70
2022-09-11T00:09:16.859Z,15.60
2022-09-11T00:14:20.172Z,15.70
2022-09-11T00:19:22.761Z,15.60
2022-09-11T00:24:25.192Z,15.70
2022-09-11T00:29:27.801Z,15.60
2022-09-11T00:34:30.203Z,15.60
2022-09-11T00:39:32.772Z,15.70
2022-09-11T00:44:35.125Z,15.50
2022-09-11T00:49:48.255Z,15.50
2022-09-11T00:55:14.660Z,15.70
2022-09-11T01:00:17.107Z,15.60
2022-09-11T01:05:22.519Z,15.50
2022-09-11T01:10:42.499Z,15.50
2022-09-11T01:16:17.991Z,15.40
2022-09-11T01:22:08.766Z,15.40
2022-09-11T01:27:35.544Z,15.60
2022-09-11T01:32:43.520Z,15.60
2022-09-11T01:37:59.703Z,15.50
2022-09-11T01:43:10.208Z,15.50
2022-09-11T01:48:20.599Z,15.40
2022-09-11T01:53:28.993Z,15.50
2022-09-11T01:58:36.426Z,15.50
2022-09-11T02:03:51.325Z,15.60
2022-09-11T02:09:03.265Z,15.40
2022-09-11T02:14:10.436Z,15.40
2022-09-11T02:19:16.638Z,15.40
2022-09-11T02:24:22.825Z,15.40
2022-09-11T02:29:26.732Z,15.40
2022-09-11T02:34:35.574Z,15.50
2022-09-11T02:40:22.113Z,15.40
2022-09-11T02:45:36.970Z,15.40
2022-09-11T02:51:06.540Z,15.40
2022-09-11T02:56:15.966Z,15.30
2022-09-11T03:01:18.515Z,15.30
2022-09-11T03:06:25.264Z,15.30
2022-09-11T03:11:27.961Z,15.40
2022-09-11T03:16:31.335Z,15.30
2022-09-11T03:21:37.910Z,15.40
2022-09-11T03:26:40.630Z,15.50
2022-09-11T03:31:43.206Z,15.40
2022-09-11T03:36:48.143Z,15.50
2022-09-11T03:41:51.570Z,15.30
2022-09-11T03:46:54.106Z,15.10
2022-09-11T03:51:57.150Z,15.30
2022-09-11T03:57:00.043Z,15.30
2022-09-11T04:02:02.735Z,15.30
2022-09-11T04:07:05.843Z,15.30
2022-09-11T04:12:08.771Z,15.20
2022-09-11T04:17:11.274Z,15.20
2022-09-11T04:22:14.620Z,15.20
2022-09-11T04:27:18.432Z,15.20
2022-09-11T04:32:23.054Z,15.10
2022-09-11T04:37:26.392Z,15.20
2022-09-11T04:42:29.369Z,15.00
2022-09-11T04:47:32.186Z,15.30
2022-09-11T04:52:34.690Z,15.20
2022-09-11T04:57:37.984Z,15.20
2022-09-11T05:02:40.741Z,15.10
2022-09-11T05:07:44.277Z,15.20
2022-09-11T05:12:47.530Z,15.10
2022-09-11T05:17:50.803Z,15.10
2022-09-11T05:22:55.826Z,15.20
2022-09-11T05:27:58.489Z,15.40
2022-09-11T05:33:01.031Z,15.50
2022-09-11T05:38:03.600Z,15.60
2022-09-11T05:43:06.782Z,15.50
2022-09-11T05:48:10.282Z,15.70
2022-09-11T05:53:14.180Z,15.60
2022-09-11T05:58:17.518Z,15.70
2022-09-11T06:03:20.212Z,16.10
2022-09-11T06:08:23.356Z,16.20
2022-09-11T06:13:29.985Z,16.10
2022-09-11T06:18:34.944Z,16.10
2022-09-11T06:23:41.719Z,16.10
2022-09-11T06:28:47.679Z,15.90
2022-09-11T06:33:51.411Z,16.00
2022-09-11T06:38:57.254Z,16.00
2022-09-11T06:44:02.086Z,16.10
2022-09-11T06:49:06.585Z,16.00
2022-09-11T06:54:19.587Z,16.10
2022-09-11T06:59:23.951Z,16.10
2022-09-11T07:04:26.690Z,16.00
2022-09-11T07:09:29.471Z,16.20
2022-09-11T07:14:33.190Z,16.20
2022-09-11T07:19:46.849Z,16.10
2022-09-11T07:24:55.002Z,16.30
2022-09-11T07:29:58.188Z,16.10
2022-09-11T07:35:02.614Z,16.20
2022-09-11T07:40:05.602Z,16.30
2022-09-11T07:45:10.329Z,16.30
2022-09-11T07:50:13.027Z,16.50
2022-09-11T07:55:16.609Z,16.50
2022-09-11T08:00:19.846Z,16.60
2022-09-11T08:05:36.272Z,16.50
2022-09-11T08:10:40.912Z,16.40
2022-09-11T08:15:51.198Z,16.50
2022-09-11T08:21:02.909Z,16.60
2022-09-11T08:26:07.196Z,16.80
2022-09-11T08:31:13.808Z,16.80
2022-09-11T08:36:16.532Z,16.90
2022-09-11T08:41:24.469Z,17.30
2022-09-11T08:46:34.691Z,17.30
2022-09-11T08:51:37.953Z,17.60
2022-09-11T08:56:41.948Z,17.80
2022-09-11T09:02:22.255Z,17.90
2022-09-11T09:07:49.842Z,18.50
2022-09-11T09:13:00.058Z,18.50
2022-09-11T09:18:15.109Z,18.70
2022-09-11T09:23:24.716Z,18.70
2022-09-11T09:28:34.888Z,18.20
2022-09-11T09:33:56.735Z,18.10
2022-09-11T09:38:59.792Z,18.30
2022-09-11T09:44:18.972Z,18.40
2022-09-11T09:49:29.468Z,18.60
2022-09-11T09:54:36.476Z,18.50
2022-09-11T09:59:55.815Z,18.70
2022-09-11T10:05:16.954Z,18.60
2022-09-11T10:10:31.289Z,18.50
2022-09-11T10:15:38.820Z,18.80
2022-09-11T10:20:41.516Z,19.20
2022-09-11T10:25:50.001Z,19.30
2022-09-11T10:31:05.004Z,18.70
2022-09-11T10:36:12.027Z,18.50
2022-09-11T10:41:14.613Z,18.40
2022-09-11T10:46:40.854Z,18.90
2022-09-11T10:52:02.004Z,19.20
2022-09-11T10:57:18.005Z,19.40
2022-09-11T11:02:43.025Z,19.40
2022-09-11T11:08:00.321Z,19.20
2022-09-11T11:13:28.407Z,19.10
2022-09-11T11:18:56.925Z,19.30
2022-09-11T11:24:40.339Z,19.80
2022-09-11T11:29:50.630Z,19.80
2022-09-11T11:35:12.957Z,20.10
2022-09-11T11:40:36.678Z,19.90
2022-09-11T11:45:47.091Z,19.70
2022-09-11T11:50:53.018Z,19.70
2022-09-11T11:56:34.455Z,19.40
2022-09-11T12:01:54.594Z,18.80
2022-09-11T12:06:59.269Z,18.80
2022-09-11T12:12:06.559Z,18.80
2022-09-11T12:17:33.022Z,19.20
2022-09-11T12:22:39.154Z,19.10
2022-09-11T12:27:43.224Z,19.10
2022-09-11T12:33:40.695Z,19.10
2022-09-11T12:38:48.926Z,19.10
2022-09-11T12:43:54.391Z,18.80
2022-09-11T12:49:20.900Z,18.80
2022-09-11T12:54:33.506Z,18.70
2022-09-11T12:59:45.590Z,18.70
2022-09-11T13:04:48.788Z,18.60
2022-09-11T13:09:52.353Z,18.50
2022-09-11T13:14:56.386Z,18.20
2022-09-11T13:20:18.192Z,18.10
2022-09-11T13:25:23.400Z,18.10
2022-09-11T13:30:27.206Z,18.20
2022-09-11T13:35:30.261Z,18.10
2022-09-11T13:40:44.532Z,18.10
2022-09-11T13:45:47.573Z,18.40
2022-09-11T13:50:51.667Z,18.40
2022-09-11T13:55:54.051Z,18.70
2022-09-11T14:00:56.520Z,18.90
2022-09-11T14:06:01.379Z,18.90
2022-09-11T14:11:11.853Z,19.10
2022-09-11T14:16:14.444Z,19.30
2022-09-11T14:21:23.045Z,18.90
2022-09-11T14:26:41.051Z,19.10
2022-09-11T14:31:44.469Z,19.00
2022-09-11T14:37:12.190Z,18.90
2022-09-11T14:42:23.277Z,18.90
2022-09-11T14:47:28.930Z,19.00
2022-09-11T14:52:32.062Z,19.00
2022-09-11T14:57:35.224Z,19.10
2022-09-11T15:02:37.596Z,18.90
2022-09-11T15:07:39.996Z,19.10
2022-09-11T15:12:42.836Z,19.10
2022-09-11T15:17:46.517Z,19.00
2022-09-11T15:22:49.003Z,19.00
2022-09-11T15:27:52.759Z,18.70
2022-09-11T15:32:55.621Z,18.50
2022-09-11T15:37:58.689Z,18.30
2022-09-11T15:43:01.090Z,18.20
2022-09-11T15:48:03.551Z,18.30
2022-09-11T15:53:06.295Z,18.40
2022-09-11T15:58:08.760Z,18.50
2022-09-11T16:03:11.980Z,18.40
2022-09-11T16:08:15.465Z,18.20
2022-09-11T16:13:20.180Z,18.30
2022-09-11T16:18:22.506Z,18.20
2022-09-11T16:23:26.739Z,18.10
2022-09-11T16:28:29.096Z,18.00
2022-09-11T16:33:32.933Z,17.90
2022-09-11T16:38:38.618Z,17.80
2022-09-11T16:43:43.480Z,17.80
2022-09-11T16:48:51.897Z,17.70
2022-09-11T16:53:56.996Z,17.60
2022-09-11T16:58:59.412Z,17.50
2022-09-11T17:04:03.761Z,17.50
2022-09-11T17:09:06.281Z,17.40
2022-09-11T17:14:08.739Z,17.40
2022-09-11T17:19:11.228Z,17.30
2022-09-11T17:24:14.140Z,17.30
2022-09-11T17:29:19.560Z,17.30
2022-09-11T17:34:22.217Z,17.20
2022-09-11T17:39:24.552Z,17.10
2022-09-11T17:44:26.999Z,17.10
2022-09-11T17:49:31.955Z,17.00
2022-09-11T17:54:34.408Z,16.90
2022-09-11T17:59:36.890Z,16.70
2022-09-11T18:04:39.268Z,16.50
2022-09-11T18:09:41.802Z,16.60
2022-09-11T18:14:44.247Z,16.50
2022-09-11T18:19:46.865Z,16.40
2022-09-11T18:24:50.944Z,16.50
2022-09-11T18:29:54.571Z,16.40
2022-09-11T18:35:00.074Z,16.40
2022-09-11T18:40:03.167Z,16.30
2022-09-11T18:45:06.619Z,16.30
2022-09-11T18:50:09.911Z,16.20
2022-09-11T18:55:12.303Z,15.90
2022-09-11T19:00:17.068Z,15.80
2022-09-11T19:05:19.532Z,15.60
2022-09-11T19:10:21.987Z,15.60
2022-09-11T19:15:25.223Z,15.40
2022-09-11T19:20:27.665Z,15.30
2022-09-11T19:25:30.246Z,15.20
2022-09-11T19:30:32.612Z,15.20
2022-09-11T19:35:35.202Z,15.20
2022-09-11T19:40:37.809Z,15.10
2022-09-11T19:45:40.260Z,15.00
2022-09-11T19:50:44.150Z,14.90
2022-09-11T19:55:46.543Z,14.80
2022-09-11T20:00:49.250Z,14.60
2022-09-11T20:05:54.051Z,14.60
2022-09-11T20:10:56.511Z,14.50
2022-09-11T20:16:03.824Z,14.40
2022-09-11T20:21:08.837Z,14.40
2022-09-11T20:26:17.655Z,14.30
2022-09-11T20:31:29.798Z,14.20
2022-09-11T20:36:32.871Z,14.20
2022-09-11T20:41:37.016Z,14.10
2022-09-11T20:46:39.613Z,14.10
2022-09-11T20:51:42.059Z,14.20
2022-09-11T20:56:44.524Z,14.10
2022-09-11T21:01:49.155Z,13.90
2022-09-11T21:06:55.041Z,13.80
2022-09-11T21:11:57.484Z,13.70
2022-09-11T21:17:02.490Z,13.70
2022-09-11T21:22:04.962Z,13.60
2022-09-11T21:27:07.392Z,13.60
2022-09-11T21:32:12.281Z,13.50
2022-09-11T21:37:15.128Z,13.40
2022-09-11T21:42:17.526Z,13.40
2022-09-11T21:47:19.994Z,13.40
2022-09-11T21:52:22.367Z,13.40
2022-09-11T21:57:28.997Z,13.30
2022-09-11T22:02:31.409Z,13.30
2022-09-11T22:07:34.432Z,13.20
2022-09-11T22:12:36.841Z,13.10
2022-09-11T22:17:39.293Z,13.20
2022-09-11T22:22:41.753Z,13.10
2022-09-11T22:27:45.855Z,13.10
2022-09-11T22:32:48.291Z,13.00
2022-09-11T22:37:51.108Z,13.00
2022-09-11T22:42:53.936Z,13.00
2022-09-11T22:47:56.604Z,12.90
2022-09-11T22:52:59.008Z,12.80
2022-09-11T22:58:01.447Z,12.80
2022-09-11T23:03:03.917Z,12.80
2022-09-11T23:08:06.371Z,12.70
2022-09-11T23:13:08.772Z,12.70
2022-09-11T23:18:11.191Z,12.70
2022-09-11T23:23:13.540Z,12.70
2022-09-11T23:28:15.927Z,12.60
2022-09-11T23:33:18.330Z,12.60
2022-09-11T23:38:20.971Z,12.60
2022-09-11T23:43:23.403Z,12.70
2022-09-11T23:48:25.813Z,12.50
2022-09-11T23:53:29.282Z,12.50
2022-09-11T23:58:31.684Z,12.50
